createdAt,value
2023-05-02T00:03:18.094Z,5.94
2023-05-02T00:07:22.241Z,5.91
2023-05-02T00:11:01.378Z,5.96
2023-05-02T00:14:57.588Z,5.98
2023-05-02T00:18:57.571Z,5.95
2023-05-02T00:22:53.550Z,5.73
2023-05-02T00:26:53.108Z,5.79
2023-05-02T00:30:46.875Z,5.76
2023-05-02T00:34:51.036Z,5.53
2023-05-02T00:38:47.777Z,5.60
2023-05-02T00:42:47.298Z,5.62
2023-05-02T00:46:43.359Z,5.57
2023-05-02T00:50:43.675Z,5.60
2023-05-02T00:54:39.639Z,5.61
2023-05-02T00:58:39.590Z,5.56
2023-05-02T01:02:35.674Z,5.48
2023-05-02T01:06:36.704Z,5.42
2023-05-02T01:10:32.285Z,5.37
2023-05-02T01:14:31.962Z,5.37
2023-05-02T01:18:21.211Z,5.35
2023-05-02T01:22:07.003Z,5.35
2023-05-02T01:25:52.378Z,5.32
2023-05-02T01:29:38.706Z,5.38
2023-05-02T01:33:24.534Z,5.31
2023-05-02T01:37:10.076Z,5.21
2023-05-02T01:40:55.681Z,5.15
2023-05-02T01:44:48.132Z,5.18
2023-05-02T01:48:45.779Z,5.11
2023-05-02T01:52:45.592Z,5.05
2023-05-02T01:56:41.490Z,5.04
2023-05-02T02:00:41.476Z,5.06
2023-05-02T02:04:37.472Z,5.09
2023-05-02T02:08:37.227Z,5.06
2023-05-02T02:12:33.526Z,4.96
2023-05-02T02:16:32.659Z,4.92
2023-05-02T02:20:18.012Z,5.00
2023-05-02T02:24:03.648Z,4.92
2023-05-02T02:27:48.957Z,4.98
2023-05-02T02:31:34.726Z,4.81
2023-05-02T02:35:20.399Z,4.85
2023-05-02T02:39:07.053Z,4.78
2023-05-02T02:42:58.656Z,4.73
2023-05-02T02:46:50.289Z,4.77
2023-05-02T02:50:42.804Z,4.83
2023-05-02T02:54:42.640Z,4.92
2023-05-02T02:58:38.546Z,4.92
2023-05-02T03:02:38.322Z,4.99
2023-05-02T03:06:42.379Z,5.06
2023-05-02T03:10:44.643Z,5.13
2023-05-02T03:14:43.319Z,5.22
2023-05-02T03:18:45.358Z,5.37
2023-05-02T03:22:44.271Z,5.52
2023-05-02T03:26:47.020Z,5.73
2023-05-02T03:30:46.339Z,5.95
2023-05-02T03:34:48.428Z,6.13
2023-05-02T03:38:47.478Z,6.37
2023-05-02T03:42:49.667Z,6.60
2023-05-02T03:46:56.502Z,6.88
2023-05-02T03:50:59.364Z,7.07
2023-05-02T03:54:58.383Z,7.49
2023-05-02T03:59:00.452Z,7.79
2023-05-02T04:02:59.298Z,8.21
2023-05-02T04:07:02.843Z,8.71
2023-05-02T04:11:01.565Z,8.98
2023-05-02T04:15:04.736Z,9.24
2023-05-02T04:19:04.683Z,9.56
2023-05-02T04:23:07.118Z,9.91
2023-05-02T04:27:05.480Z,10.31
2023-05-02T04:31:08.250Z,10.63
2023-05-02T04:35:06.325Z,10.97
2023-05-02T04:39:09.110Z,11.27
2023-05-02T04:43:10.306Z,11.57
2023-05-02T04:47:18.084Z,11.99
2023-05-02T04:51:18.897Z,12.39
2023-05-02T04:55:27.454Z,12.79
2023-05-02T04:59:26.584Z,13.17
2023-05-02T05:03:26.767Z,13.59
2023-05-02T05:07:24.106Z,14.13
2023-05-02T05:11:25.483Z,14.40
2023-05-02T05:15:24.011Z,14.66
2023-05-02T05:19:26.022Z,15.05
2023-05-02T05:23:26.024Z,15.35
2023-05-02T05:27:26.637Z,15.73
2023-05-02T05:31:22.732Z,15.96
2023-05-02T05:35:25.857Z,16.15
2023-05-02T05:39:21.995Z,16.48
2023-05-02T05:43:22.170Z,16.86
2023-05-02T05:47:15.823Z,17.15
2023-05-02T05:51:17.320Z,17.46
2023-05-02T05:55:14.472Z,17.80
2023-05-02T05:59:14.408Z,18.08
2023-05-02T06:03:10.211Z,18.17
2023-05-02T06:07:10.403Z,18.50
2023-05-02T06:11:03.950Z,18.43
2023-05-02T06:15:01.254Z,18.62
2023-05-02T06:19:04.674Z,18.65
2023-05-02T06:23:00.951Z,19.01
2023-05-02T06:27:00.392Z,19.32
2023-05-02T06:30:55.857Z,19.39
2023-05-02T06:34:55.483Z,19.53
2023-05-02T06:38:49.375Z,19.65
2023-05-02T06:42:46.898Z,19.81
2023-05-02T06:46:44.411Z,20.03
2023-05-02T06:50:44.089Z,20.16
2023-05-02T06:54:40.060Z,20.30
2023-05-02T06:58:39.585Z,20.70
2023-05-02T07:02:35.201Z,21.10
2023-05-02T07:06:39.743Z,21.11
2023-05-02T07:10:42.004Z,21.49
2023-05-02T07:14:40.745Z,21.58
2023-05-02T07:18:43.198Z,21.80
2023-05-02T07:22:41.711Z,21.56
2023-05-02T07:26:43.621Z,21.78
2023-05-02T07:30:41.707Z,21.99
2023-05-02T07:34:43.529Z,22.24
2023-05-02T07:38:42.666Z,22.28
2023-05-02T07:42:44.267Z,22.43
2023-05-02T07:46:43.916Z,22.59
2023-05-02T07:50:45.847Z,22.71
2023-05-02T07:54:44.767Z,22.74
2023-05-02T07:58:47.437Z,22.57
2023-05-02T08:02:45.934Z,22.42
2023-05-02T08:06:47.683Z,22.30
2023-05-02T08:10:45.696Z,22.30
2023-05-02T08:14:47.375Z,22.67
2023-05-02T08:18:45.749Z,22.90
2023-05-02T08:22:47.314Z,22.81
2023-05-02T08:26:43.355Z,22.63
2023-05-02T08:30:45.635Z,22.61
2023-05-02T08:34:44.149Z,22.73
2023-05-02T08:38:46.533Z,22.87
2023-05-02T08:42:44.804Z,23.21
2023-05-02T08:46:46.925Z,23.27
2023-05-02T08:50:44.972Z,23.50
2023-05-02T08:54:46.691Z,23.43
2023-05-02T08:58:45.244Z,23.16
2023-05-02T09:02:46.824Z,23.37
2023-05-02T09:06:46.633Z,23.43
2023-05-02T09:10:48.760Z,23.53
2023-05-02T09:14:46.458Z,23.62
2023-05-02T09:18:47.913Z,23.86
2023-05-02T09:22:45.317Z,23.87
2023-05-02T09:26:45.486Z,23.74
2023-05-02T09:30:43.448Z,23.39
2023-05-02T09:34:43.664Z,23.38
2023-05-02T09:38:41.428Z,23.49
2023-05-02T09:42:41.361Z,23.46
2023-05-02T09:46:39.536Z,23.77
2023-05-02T09:50:39.552Z,23.71
2023-05-02T09:54:37.317Z,23.73
2023-05-02T09:58:37.853Z,23.79
2023-05-02T10:02:39.376Z,23.87
2023-05-02T10:06:39.343Z,23.76
2023-05-02T10:10:37.264Z,23.83
2023-05-02T10:14:30.842Z,23.66
2023-05-02T10:18:28.435Z,23.70
2023-05-02T10:22:28.477Z,23.86
2023-05-02T10:26:25.946Z,24.07
2023-05-02T10:30:27.282Z,24.45
2023-05-02T10:34:25.755Z,24.28
2023-05-02T10:38:25.492Z,24.35
2023-05-02T10:42:23.776Z,24.37
2023-05-02T10:46:24.713Z,24.51
2023-05-02T10:50:23.748Z,24.33
2023-05-02T10:54:23.518Z,24.55
2023-05-02T10:58:22.158Z,24.63
2023-05-02T11:02:22.561Z,24.59
2023-05-02T11:06:33.518Z,24.65
2023-05-02T11:10:35.666Z,24.51
2023-05-02T11:14:34.040Z,24.71
2023-05-02T11:18:33.980Z,24.83
2023-05-02T11:22:30.326Z,24.99
2023-05-02T11:26:29.970Z,25.15
2023-05-02T11:30:20.879Z,25.19
2023-05-02T11:34:12.219Z,25.27
2023-05-02T11:38:00.351Z,25.75
2023-05-02T11:41:46.121Z,25.91
2023-05-02T11:45:31.768Z,25.79
2023-05-02T11:52:58.130Z,25.71
2023-05-02T11:56:43.966Z,25.82
2023-05-02T12:00:32.524Z,25.79
2023-05-02T12:04:24.075Z,25.52
2023-05-02T12:08:09.546Z,25.37
2023-05-02T12:12:01.026Z,25.48
2023-05-02T12:15:54.170Z,25.48
2023-05-02T12:19:45.384Z,25.21
2023-05-02T12:23:37.748Z,24.60
2023-05-02T12:27:35.925Z,24.13
2023-05-02T12:31:31.264Z,24.05
2023-05-02T12:35:30.720Z,23.99
2023-05-02T12:39:26.612Z,23.88
2023-05-02T12:43:25.760Z,23.75
2023-05-02T12:47:17.404Z,23.96
2023-05-02T12:51:16.857Z,24.40
2023-05-02T12:55:08.301Z,24.83
2023-05-02T12:59:07.715Z,25.21
2023-05-02T13:02:52.717Z,25.72
2023-05-02T13:06:46.442Z,25.95
2023-05-02T13:10:38.201Z,26.50
2023-05-02T13:14:30.093Z,26.60
2023-05-02T13:18:27.423Z,26.81
2023-05-02T13:22:26.795Z,26.94
2023-05-02T13:26:22.227Z,27.22
2023-05-02T13:30:21.198Z,27.74
2023-05-02T13:34:16.397Z,28.37
2023-05-02T13:38:16.176Z,28.44
2023-05-02T13:42:27.278Z,28.66
2023-05-02T13:46:29.320Z,28.92
2023-05-02T13:50:28.805Z,28.56
2023-05-02T13:54:31.703Z,28.24
2023-05-02T13:58:27.850Z,28.27
2023-05-02T14:02:28.340Z,28.20
2023-05-02T14:06:24.965Z,28.31
2023-05-02T14:10:24.704Z,28.80
2023-05-02T14:14:20.392Z,29.01
2023-05-02T14:18:19.911Z,29.23
2023-05-02T14:22:15.554Z,29.46
2023-05-02T14:26:15.054Z,29.14
2023-05-02T14:30:10.792Z,28.00
2023-05-02T14:34:10.243Z,27.28
2023-05-02T14:38:05.408Z,26.21
2023-05-02T14:42:04.642Z,25.60
2023-05-02T14:46:00.626Z,25.53
2023-05-02T14:50:00.285Z,25.20
2023-05-02T14:53:56.471Z,24.85
2023-05-02T14:57:56.156Z,24.75
2023-05-02T15:01:52.568Z,24.40
2023-05-02T15:05:54.476Z,24.12
2023-05-02T15:10:03.917Z,23.70
2023-05-02T15:13:59.716Z,23.56
2023-05-02T15:17:59.089Z,23.36
2023-05-02T15:21:54.285Z,23.37
2023-05-02T15:25:53.665Z,23.17
2023-05-02T15:29:46.582Z,23.34
2023-05-02T15:33:49.755Z,23.35
2023-05-02T15:37:45.538Z,23.20
2023-05-02T15:41:44.771Z,22.93
2023-05-02T15:45:40.872Z,23.02
2023-05-02T15:49:40.170Z,23.03
2023-05-02T15:53:35.622Z,22.59
2023-05-02T15:57:32.740Z,22.40
2023-05-02T16:01:32.169Z,22.00
2023-05-02T16:05:31.770Z,21.96
2023-05-02T16:09:27.678Z,20.85
2023-05-02T16:13:27.128Z,20.64
2023-05-02T16:17:22.806Z,20.39
2023-05-02T16:21:20.286Z,20.83
2023-05-02T16:25:13.298Z,20.86
2023-05-02T16:29:16.318Z,21.00
2023-05-02T16:33:11.682Z,21.21
2023-05-02T16:37:11.394Z,20.96
2023-05-02T16:41:06.511Z,20.71
2023-05-02T16:45:05.925Z,20.49
2023-05-02T16:48:59.059Z,20.37
2023-05-02T16:52:56.438Z,20.18
2023-05-02T16:56:51.703Z,19.63
2023-05-02T17:00:51.237Z,18.69
2023-05-02T17:04:46.952Z,18.44
2023-05-02T17:08:46.256Z,19.00
2023-05-02T17:12:41.815Z,19.18
2023-05-02T17:16:43.322Z,18.99
2023-05-02T17:20:38.619Z,19.04
2023-05-02T17:24:35.924Z,19.10
2023-05-02T17:28:35.206Z,18.76
2023-05-02T17:32:30.802Z,17.72
2023-05-02T17:36:29.974Z,17.75
2023-05-02T17:40:26.019Z,17.55
2023-05-02T17:44:23.269Z,17.39
2023-05-02T17:48:08.331Z,17.45
2023-05-02T17:51:53.262Z,17.55
2023-05-02T17:55:38.314Z,17.13
2023-05-02T17:59:23.428Z,17.39
2023-05-02T18:03:08.536Z,17.62
2023-05-02T18:06:53.801Z,17.53
2023-05-02T18:10:38.880Z,17.28
2023-05-02T18:14:29.778Z,16.98
2023-05-02T18:18:22.847Z,16.72
2023-05-02T18:22:13.888Z,16.38
2023-05-02T18:26:08.927Z,16.04
2023-05-02T18:30:08.503Z,16.04
2023-05-02T18:34:03.883Z,16.19
2023-05-02T18:38:02.869Z,16.35
2023-05-02T18:41:58.053Z,16.16
2023-05-02T18:45:57.430Z,16.11
2023-05-02T18:49:52.815Z,16.03
2023-05-02T18:53:39.335Z,15.60
2023-05-02T18:57:24.456Z,15.29
2023-05-02T19:01:09.434Z,15.19
2023-05-02T19:05:01.048Z,15.27
2023-05-02T19:08:59.682Z,15.23
2023-05-02T19:12:57.622Z,15.03
2023-05-02T19:16:59.339Z,15.01
2023-05-02T19:20:58.733Z,14.63
2023-05-02T19:25:00.425Z,14.52
2023-05-02T19:28:58.630Z,14.31
2023-05-02T19:33:00.274Z,14.51
2023-05-02T19:36:58.687Z,14.44
2023-05-02T19:41:00.149Z,14.62
2023-05-02T19:44:58.779Z,14.51
2023-05-02T19:49:00.332Z,14.36
2023-05-02T19:52:58.717Z,13.99
2023-05-02T19:57:00.312Z,14.02
2023-05-02T20:00:58.892Z,13.95
2023-05-02T20:05:00.308Z,13.90
2023-05-02T20:08:58.927Z,13.82
2023-05-02T20:12:59.731Z,13.81
2023-05-02T20:16:59.197Z,13.62
2023-05-02T20:21:04.387Z,13.60
2023-05-02T20:25:02.855Z,14.06
2023-05-02T20:29:04.510Z,14.52
2023-05-02T20:33:14.739Z,14.75
2023-05-02T20:37:14.764Z,15.08
2023-05-02T20:41:13.025Z,15.39
2023-05-02T20:45:14.921Z,15.76
2023-05-02T20:49:12.954Z,15.63
2023-05-02T20:53:14.482Z,15.45
2023-05-02T20:57:13.016Z,15.34
2023-05-02T21:01:14.405Z,15.34
2023-05-02T21:05:10.200Z,15.47
2023-05-02T21:09:09.708Z,15.30
2023-05-02T21:13:02.972Z,15.24
2023-05-02T21:17:06.155Z,15.43
2023-05-02T21:21:01.981Z,15.30
2023-05-02T21:25:01.328Z,15.38
2023-05-02T21:28:57.023Z,15.57
2023-05-02T21:32:56.078Z,15.47
2023-05-02T21:36:51.196Z,14.98
2023-05-02T21:40:48.393Z,14.95
2023-05-02T21:44:47.811Z,14.90
2023-05-02T21:48:46.943Z,14.73
2023-05-02T21:52:42.149Z,14.23
2023-05-02T21:56:41.940Z,13.99
2023-05-02T22:00:37.526Z,13.58
2023-05-02T22:04:36.944Z,13.50
2023-05-02T22:08:30.222Z,13.70
2023-05-02T22:12:33.262Z,13.76
2023-05-02T22:16:29.528Z,13.30
2023-05-02T22:20:28.811Z,13.09
2023-05-02T22:24:24.509Z,13.11
2023-05-02T22:28:23.727Z,13.39
2023-05-02T22:32:19.603Z,13.30
2023-05-02T22:36:16.585Z,13.09
2023-05-02T22:40:15.845Z,12.98
2023-05-02T22:44:15.214Z,12.97
2023-05-02T22:48:10.293Z,12.75
2023-05-02T22:52:09.400Z,12.88
2023-05-02T22:56:05.246Z,12.90
2023-05-02T23:00:04.499Z,12.91
2023-05-02T23:03:58.004Z,13.02
2023-05-02T23:08:01.981Z,13.09
2023-05-02T23:12:03.727Z,13.37
2023-05-02T23:16:01.149Z,13.69
2023-05-02T23:20:02.936Z,13.90
2023-05-02T23:24:01.139Z,14.13
2023-05-02T23:28:02.076Z,13.99
2023-05-02T23:32:03.777Z,13.89
2023-05-02T23:36:02.180Z,14.01
2023-05-02T23:40:03.899Z,14.23
2023-05-02T23:44:02.229Z,14.24
2023-05-02T23:48:03.691Z,14.05
2023-05-02T23:52:02.160Z,13.81
2023-05-02T23:56:03.741Z,13.84
